Brookton, Maine
Current Conditions -  °F | °C
As of 10:53 AM on Monday 26 Jan 2015 (Local Time) from KHUL Reporting Station
Clear Clear  
Wind Chill: -8°   Ceiling: Unl
Heat Index:   Visibility: 10mi
Dew Point: -11°   Wind: 7mph
Humidity: 50%   Direction: 50°NE
Pressure: 30.18"   Gusts: NA
Location:  45.53°N, 67.76°W
Report Text: KHUL 261553Z AUTO 05006KT 10SM CLR M16/M24 A3018 RMK AO2 SLP233 T11561239
Loading
Personal Weather Stations






























Interactive Weather Map New forecast layout! Learn more

10-Day Weather Forecast

Advertisements
Track Severe Weather on mobile